Time;durP1;ratioP1;P1;durP2;ratioP2;P2;SDS_P1;SDS_P2;PMS_P1;PMS_P2;Temp;Humidity;BMP_temperature;BMP_pressure;BME280_temperature;BME280_humidity;BME280_pressure;Samples;Min_cycle;Max_cycle;Signal;HPM_P1;HPM_P2
2022/01/24 00:01:54;;;;;;;1.58;1.33;;;;;;;;;;4997067;28;20034;-22
2022/01/24 00:04:21;;;;;;;1.40;1.30;;;;;;;;;;4997372;28;20042;-21
2022/01/24 00:06:48;;;;;;;1.20;1.10;;;;;;;;;;4997335;28;20046;-22
2022/01/24 00:09:14;;;;;;;2.53;1.65;;;;;;;;;;4997857;28;20053;-22
2022/01/24 00:14:47;;;;;;;1.48;1.30;;;;;;;;;;4997145;28;20391;-21
2022/01/24 00:27:20;;;;;;;1.10;1.00;;;;;;;;;;4996490;28;20062;-22
2022/01/24 00:29:47;;;;;;;1.60;1.50;;;;;;;;;;4996545;28;20048;-22
2022/01/24 00:32:13;;;;;;;1.25;1.15;;;;;;;;;;4996412;28;20045;-21
2022/01/24 00:34:40;;;;;;;1.00;1.00;;;;;;;;;;4996789;28;20022;-22
2022/01/24 00:37:06;;;;;;;3.03;1.23;;;;;;;;;;4996456;28;20023;-21
2022/01/24 00:39:33;;;;;;;2.42;1.30;;;;;;;;;;4997199;28;20045;-22
2022/01/24 00:47:05;;;;;;;1.38;1.38;;;;;;;;;;4996319;28;20034;-21
2022/01/24 00:54:51;;;;;;;1.70;1.60;;;;;;;;;;4996223;28;20045;-23
2022/01/24 00:57:18;;;;;;;0.95;0.95;;;;;;;;;;4996643;28;20102;-21
2022/01/24 00:59:44;;;;;;;1.48;1.38;;;;;;;;;;4996070;28;20442;-21
2022/01/24 01:02:10;;;;;;;1.60;1.50;;;;;;;;;;4996188;28;20037;-21
2022/01/24 01:05:24;;;;;;;2.88;1.17;;;;;;;;;;4996219;28;20037;-22
2022/01/24 01:07:38;;;;;;;1.42;1.33;;;;;;;;;;4995904;28;20470;-22
2022/01/24 01:18:19;;;;;;;1.30;1.20;;;;;;;;;;4996067;28;20129;-21
2022/01/24 01:23:34;;;;;;;1.17;1.17;;;;;;;;;;4994991;28;20045;-22
2022/01/24 01:26:05;;;;;;;1.38;1.30;;;;;;;;;;4995807;28;20149;-21
2022/01/24 01:28:32;;;;;;;2.33;1.63;;;;;;;;;;4995522;28;20097;-22
2022/01/24 01:31:04;;;;;;;1.63;1.52;;;;;;;;;;4995556;28;20014;-21
2022/01/24 01:34:24;;;;;;;1.42;1.33;;;;;;;;;;4995417;28;20049;-22
2022/01/24 01:37:16;;;;;;;1.38;1.38;;;;;;;;;;4995027;28;20034;-21
2022/01/24 01:57:59;;;;;;;1.10;1.10;;;;;;;;;;4995502;28;20037;-22
2022/01/24 02:00:25;;;;;;;1.98;1.00;;;;;;;;;;4995755;28;20037;-24
2022/01/24 02:02:51;;;;;;;1.60;1.35;;;;;;;;;;4995408;28;20060;-21
2022/01/24 02:05:18;;;;;;;1.50;1.40;;;;;;;;;;4995664;28;20430;-22
2022/01/24 02:07:48;;;;;;;2.05;1.50;;;;;;;;;;4995409;28;20026;-21
2022/01/24 02:10:14;;;;;;;1.40;1.30;;;;;;;;;;4994983;28;20112;-22
2022/01/24 02:12:41;;;;;;;1.02;1.00;;;;;;;;;;4994960;28;20097;-21
2022/01/24 02:15:07;;;;;;;1.50;1.17;;;;;;;;;;4995043;28;20027;-21
2022/01/24 02:17:52;;;;;;;1.38;1.27;;;;;;;;;;4995044;28;20030;-22
2022/01/24 02:23:15;;;;;;;1.20;1.20;;;;;;;;;;4994957;28;20406;-21
2022/01/24 02:25:38;;;;;;;1.67;1.58;;;;;;;;;;4994676;28;20189;-22
2022/01/24 02:28:05;;;;;;;1.33;1.23;;;;;;;;;;4994881;28;20049;-21
2022/01/24 02:33:03;;;;;;;1.52;1.35;;;;;;;;;;4995275;28;20425;-22
2022/01/24 02:35:30;;;;;;;1.30;1.20;;;;;;;;;;4998999;28;20022;-22
2022/01/24 02:37:59;;;;;;;1.50;1.40;;;;;;;;;;4998705;28;20454;-21
2022/01/24 02:40:26;;;;;;;1.40;1.30;;;;;;;;;;4998892;28;20029;-22
2022/01/24 02:53:21;;;;;;;1.85;1.13;;;;;;;;;;4998353;28;20084;-21
2022/01/24 02:55:49;;;;;;;1.70;1.60;;;;;;;;;;4998365;28;20026;-21
2022/01/24 02:58:16;;;;;;;1.65;1.55;;;;;;;;;;4997476;28;20034;-21
2022/01/24 03:00:43;;;;;;;1.33;1.23;;;;;;;;;;4998579;28;20035;-22
2022/01/24 03:03:10;;;;;;;1.35;1.25;;;;;;;;;;4998161;28;20035;-21
2022/01/24 03:05:36;;;;;;;2.05;1.23;;;;;;;;;;4998222;28;20037;-21
2022/01/24 03:08:02;;;;;;;1.40;1.30;;;;;;;;;;4998004;28;20030;-22
2022/01/24 03:10:44;;;;;;;1.42;1.30;;;;;;;;;;4998401;28;20031;-21
2022/01/24 03:15:43;;;;;;;1.40;1.27;;;;;;;;;;4998627;28;20081;-21
2022/01/24 03:18:12;;;;;;;1.50;1.20;;;;;;;;;;4998272;28;20050;-22
2022/01/24 03:20:39;;;;;;;1.20;1.20;;;;;;;;;;4997928;28;20030;-22
2022/01/24 03:23:06;;;;;;;1.55;1.45;;;;;;;;;;4997806;28;20186;-23
2022/01/24 03:25:32;;;;;;;2.03;1.90;;;;;;;;;;4997654;28;20062;-21
2022/01/24 03:27:59;;;;;;;2.22;1.40;;;;;;;;;;4998372;28;20019;-25
2022/01/24 03:30:25;;;;;;;1.25;1.08;;;;;;;;;;4997682;28;20038;-22
2022/01/24 03:32:52;;;;;;;1.40;1.30;;;;;;;;;;4997947;28;20085;-22
2022/01/24 03:35:19;;;;;;;1.00;1.00;;;;;;;;;;4997654;28;20026;-22
2022/01/24 03:37:45;;;;;;;1.05;1.02;;;;;;;;;;4997653;28;20073;-24
2022/01/24 03:40:11;;;;;;;1.00;1.00;;;;;;;;;;4997832;28;20057;-23
2022/01/24 03:42:38;;;;;;;1.63;1.33;;;;;;;;;;4997508;28;20038;-21
2022/01/24 03:45:06;;;;;;;1.40;1.30;;;;;;;;;;4995843;28;20035;-21
2022/01/24 03:50:00;;;;;;;1.60;1.50;;;;;;;;;;4997321;28;20058;-21
2022/01/24 03:52:30;;;;;;;2.60;1.30;;;;;;;;;;4998084;28;20042;-21
2022/01/24 03:54:56;;;;;;;1.45;1.20;;;;;;;;;;4997585;28;20343;-21
2022/01/24 03:57:23;;;;;;;1.23;1.17;;;;;;;;;;4997242;28;20023;-21
2022/01/24 03:59:49;;;;;;;1.42;1.33;;;;;;;;;;4997719;28;20110;-21
2022/01/24 04:02:16;;;;;;;1.52;1.42;;;;;;;;;;4996856;28;20557;-21
2022/01/24 04:04:42;;;;;;;1.48;1.20;;;;;;;;;;4997359;28;20042;-22
2022/01/24 04:07:09;;;;;;;1.55;1.40;;;;;;;;;;4997101;28;20093;-22
2022/01/24 04:09:35;;;;;;;1.42;1.33;;;;;;;;;;4997214;28;20109;-21
2022/01/24 04:12:03;;;;;;;1.88;1.08;;;;;;;;;;4996883;28;20454;-21
2022/01/24 04:17:21;;;;;;;1.50;1.40;;;;;;;;;;4996961;28;20390;-21
2022/01/24 04:22:38;;;;;;;1.20;1.00;;;;;;;;;;4996782;28;20121;-21
2022/01/24 04:25:06;;;;;;;1.50;1.40;;;;;;;;;;4996750;28;20457;-21
2022/01/24 04:27:32;;;;;;;2.25;1.40;;;;;;;;;;4996586;28;20046;-21
2022/01/24 04:29:58;;;;;;;1.30;1.20;;;;;;;;;;4996557;28;20089;-21
2022/01/24 04:32:24;;;;;;;1.75;1.65;;;;;;;;;;4996555;28;20019;-21
2022/01/24 04:34:51;;;;;;;1.58;1.48;;;;;;;;;;4996546;28;20049;-21
2022/01/24 04:37:17;;;;;;;1.20;1.10;;;;;;;;;;4996728;28;20022;-21
2022/01/24 04:39:44;;;;;;;1.33;1.23;;;;;;;;;;4996449;28;20425;-21
2022/01/24 04:42:16;;;;;;;1.65;1.55;;;;;;;;;;4996301;28;20027;-21
2022/01/24 04:52:40;;;;;;;1.25;1.20;;;;;;;;;;4996610;28;20374;-22
2022/01/24 04:55:06;;;;;;;1.40;1.33;;;;;;;;;;4995338;28;20030;-21
2022/01/24 04:57:32;;;;;;;1.20;1.20;;;;;;;;;;4994893;28;20366;-22
2022/01/24 05:00:00;;;;;;;1.23;1.23;;;;;;;;;;4995959;28;20373;-21
2022/01/24 05:02:27;;;;;;;1.38;1.23;;;;;;;;;;4996367;28;20038;-22
2022/01/24 05:04:54;;;;;;;1.20;1.10;;;;;;;;;;4995953;28;20030;-21
2022/01/24 05:07:21;;;;;;;1.25;1.15;;;;;;;;;;4995873;28;20113;-22
2022/01/24 05:09:58;;;;;;;1.58;1.48;;;;;;;;;;4995837;28;20034;-21
2022/01/24 05:26:10;;;;;;;6.03;1.42;;;;;;;;;;5000627;28;20137;-22
2022/01/24 05:28:37;;;;;;;1.65;1.00;;;;;;;;;;4995696;28;20038;-21
2022/01/24 05:31:04;;;;;;;1.27;1.20;;;;;;;;;;4995712;28;20054;-21
2022/01/24 05:33:30;;;;;;;2.03;1.23;;;;;;;;;;4995318;28;20026;-22
2022/01/24 05:35:56;;;;;;;1.20;1.10;;;;;;;;;;4994403;28;20035;-21
2022/01/24 05:38:23;;;;;;;1.67;1.30;;;;;;;;;;4995331;28;20041;-22
2022/01/24 05:40:49;;;;;;;1.20;1.13;;;;;;;;;;4995342;28;20038;-22
2022/01/24 05:43:16;;;;;;;4.57;1.20;;;;;;;;;;4995194;28;20081;-21
2022/01/24 05:45:42;;;;;;;1.60;1.48;;;;;;;;;;4995506;28;20046;-21
2022/01/24 05:48:08;;;;;;;4.20;1.90;;;;;;;;;;4995112;28;20449;-22
2022/01/24 05:50:35;;;;;;;4.32;1.50;;;;;;;;;;4995238;28;20026;-22
2022/01/24 05:53:01;;;;;;;4.68;1.42;;;;;;;;;;4995323;28;20033;-23
2022/01/24 05:55:27;;;;;;;4.95;1.52;;;;;;;;;;4995156;28;20023;-23
2022/01/24 05:57:53;;;;;;;3.35;1.10;;;;;;;;;;4995108;28;20037;-22
2022/01/24 06:03:24;;;;;;;1.73;1.35;;;;;;;;;;5209372;23;20056;-31
2022/01/24 06:05:50;;;;;;;1.50;1.40;;;;;;;;;;4918626;29;20108;-32
2022/01/24 06:08:20;;;;;;;6.43;1.45;;;;;;;;;;4919263;29;20024;-32
2022/01/24 06:10:47;;;;;;;2.63;1.40;;;;;;;;;;4922183;29;20060;-29
2022/01/24 06:13:14;;;;;;;2.63;1.15;;;;;;;;;;4922002;29;20051;-30
2022/01/24 06:15:41;;;;;;;2.85;1.40;;;;;;;;;;4922423;29;20024;-31
2022/01/24 06:18:07;;;;;;;3.80;1.73;;;;;;;;;;4922589;29;20107;-31
2022/01/24 06:20:33;;;;;;;18.88;4.47;;;;;;;;;;4922239;29;20068;-31
2022/01/24 06:23:00;;;;;;;22.30;2.83;;;;;;;;;;4921060;29;20126;-30
2022/01/24 06:25:28;;;;;;;5.30;1.40;;;;;;;;;;4922171;29;20043;-30
2022/01/24 06:27:54;;;;;;;6.57;1.30;;;;;;;;;;4921688;29;20507;-30
2022/01/24 06:30:20;;;;;;;4.93;1.73;;;;;;;;;;4920954;29;20040;-30
2022/01/24 06:32:47;;;;;;;7.47;1.70;;;;;;;;;;4920626;29;20116;-34
2022/01/24 06:35:14;;;;;;;7.55;1.52;;;;;;;;;;4921993;29;20411;-31
2022/01/24 06:37:40;;;;;;;9.10;1.40;;;;;;;;;;4921701;29;20055;-31
2022/01/24 06:40:11;;;;;;;3.75;1.20;;;;;;;;;;4921619;29;20136;-30
2022/01/24 06:42:38;;;;;;;2.72;1.85;;;;;;;;;;4921531;29;20040;-30
2022/01/24 06:45:05;;;;;;;5.63;1.50;;;;;;;;;;4920680;29;20032;-30
2022/01/24 06:47:31;;;;;;;6.60;1.77;;;;;;;;;;4921979;29;20115;-31
2022/01/24 06:49:58;;;;;;;9.50;1.95;;;;;;;;;;4921447;29;20456;-31
2022/01/24 06:52:24;;;;;;;8.52;1.83;;;;;;;;;;4921239;29;20024;-32
2022/01/24 06:54:50;;;;;;;10.43;1.70;;;;;;;;;;4921284;29;20028;-30
2022/01/24 06:57:16;;;;;;;10.90;1.63;;;;;;;;;;4921242;29;20028;-30
2022/01/24 06:59:43;;;;;;;7.32;1.85;;;;;;;;;;4921141;29;20115;-30
2022/01/24 07:02:10;;;;;;;8.35;1.58;;;;;;;;;;4920937;29;20079;-30
2022/01/24 07:04:39;;;;;;;6.20;1.40;;;;;;;;;;4920190;29;20044;-31
2022/01/24 07:07:06;;;;;;;6.78;1.48;;;;;;;;;;4920346;29;20060;-30
2022/01/24 07:09:33;;;;;;;8.90;1.92;;;;;;;;;;4920043;29;20036;-31
2022/01/24 07:11:59;;;;;;;8.90;1.80;;;;;;;;;;4921186;29;20040;-31
2022/01/24 07:14:25;;;;;;;7.32;1.60;;;;;;;;;;4921055;29;20039;-31
2022/01/24 07:19:22;;;;;;;5.25;1.67;;;;;;;;;;4921267;29;20044;-31
2022/01/24 07:21:48;;;;;;;4.03;1.17;;;;;;;;;;4920575;29;20031;-31
2022/01/24 07:24:14;;;;;;;5.20;1.48;;;;;;;;;;4920502;29;20479;-31
2022/01/24 07:26:40;;;;;;;3.03;1.55;;;;;;;;;;4920972;29;20055;-31
2022/01/24 07:29:07;;;;;;;2.72;1.58;;;;;;;;;;4920355;29;20032;-31
2022/01/24 07:31:33;;;;;;;7.35;1.58;;;;;;;;;;4920808;29;20028;-31
2022/01/24 07:34:00;;;;;;;3.40;2.17;;;;;;;;;;4920327;29;20024;-30
2022/01/24 07:36:26;;;;;;;4.53;1.48;;;;;;;;;;4920484;29;20447;-30
2022/01/24 07:38:52;;;;;;;3.97;1.48;;;;;;;;;;4919950;29;20374;-30
2022/01/24 07:41:30;;;;;;;3.92;1.50;;;;;;;;;;4919005;29;20404;-30
2022/01/24 07:43:57;;;;;;;10.07;2.03;;;;;;;;;;4919191;29;20028;-31
2022/01/24 07:46:24;;;;;;;10.32;1.80;;;;;;;;;;4920332;29;20158;-31
2022/01/24 07:48:50;;;;;;;10.10;1.75;;;;;;;;;;4920197;29;20124;-33
2022/01/24 07:51:16;;;;;;;11.98;2.65;;;;;;;;;;4920169;29;20462;-30
2022/01/24 07:53:43;;;;;;;8.32;1.30;;;;;;;;;;4920180;29;20398;-30
2022/01/24 07:56:09;;;;;;;6.60;1.83;;;;;;;;;;4920079;29;20450;-31
2022/01/24 07:58:36;;;;;;;12.07;2.22;;;;;;;;;;4919732;29;20036;-30
2022/01/24 08:01:02;;;;;;;21.05;2.13;;;;;;;;;;4918786;29;20427;-30
2022/01/24 08:03:29;;;;;;;17.42;4.95;;;;;;;;;;4919390;29;20087;-30
2022/01/24 08:05:55;;;;;;;11.82;2.53;;;;;;;;;;4919723;29;20095;-32
2022/01/24 08:08:21;;;;;;;13.07;2.03;;;;;;;;;;4919683;29;20039;-31
2022/01/24 08:10:48;;;;;;;16.75;1.98;;;;;;;;;;4919918;29;20047;-30
2022/01/24 08:13:14;;;;;;;21.38;3.55;;;;;;;;;;4919865;29;20103;-30
2022/01/24 08:15:41;;;;;;;26.27;3.05;;;;;;;;;;4919935;29;20371;-30
2022/01/24 08:18:09;;;;;;;6.20;1.55;;;;;;;;;;4919549;29;20365;-31
2022/01/24 08:20:41;;;;;;;6.70;2.30;;;;;;;;;;4919701;29;20107;-31
2022/01/24 08:23:10;;;;;;;17.75;2.75;;;;;;;;;;4919506;29;20103;-31
2022/01/24 08:25:36;;;;;;;13.25;3.28;;;;;;;;;;4919254;29;20032;-31
2022/01/24 08:28:03;;;;;;;20.65;2.85;;;;;;;;;;4918336;29;20036;-32
2022/01/24 08:30:30;;;;;;;13.68;2.30;;;;;;;;;;4919093;29;20035;-31
2022/01/24 08:33:01;;;;;;;5.82;1.90;;;;;;;;;;4919073;29;20036;-31
2022/01/24 08:35:28;;;;;;;7.78;1.95;;;;;;;;;;4919437;29;20040;-31
2022/01/24 08:37:54;;;;;;;10.77;1.50;;;;;;;;;;4919321;29;20470;-31
2022/01/24 08:40:27;;;;;;;8.65;1.90;;;;;;;;;;4919254;29;20040;-31
2022/01/24 08:42:56;;;;;;;6.43;1.48;;;;;;;;;;4919198;29;20044;-31
2022/01/24 08:45:45;;;;;;;9.68;1.75;;;;;;;;;;4918965;29;20036;-31
2022/01/24 08:48:12;;;;;;;12.55;1.88;;;;;;;;;;4918528;29;20052;-30
2022/01/24 08:50:38;;;;;;;8.20;1.90;;;;;;;;;;4918888;29;20119;-30
2022/01/24 08:53:10;;;;;;;;;;;;;;;;;;4919300;29;20063;-31
2022/01/24 08:55:37;;;;;;;8.88;2.05;;;;;;;;;;4918916;29;19918;-30
2022/01/24 08:58:05;;;;;;;8.65;1.70;;;;;;;;;;4918997;29;20032;-30
2022/01/24 09:00:31;;;;;;;7.15;1.95;;;;;;;;;;4918945;29;20053;-31
2022/01/24 09:02:57;;;;;;;14.88;1.95;;;;;;;;;;4918261;29;20060;-31
2022/01/24 09:05:24;;;;;;;9.57;1.85;;;;;;;;;;4918570;29;20535;-31
2022/01/24 09:07:54;;;;;;;16.48;1.70;;;;;;;;;;4918506;29;20036;-31
2022/01/24 09:10:24;;;;;;;11.80;2.42;;;;;;;;;;4918394;29;20035;-31
2022/01/24 09:12:50;;;;;;;10.45;1.98;;;;;;;;;;4918109;29;20019;-31
2022/01/24 09:15:16;;;;;;;15.43;2.08;;;;;;;;;;4918368;29;20028;-31
2022/01/24 09:17:43;;;;;;;12.77;4.25;;;;;;;;;;4918178;29;20025;-31
2022/01/24 09:20:11;;;;;;;16.70;2.10;;;;;;;;;;4917461;29;20075;-32
2022/01/24 09:22:37;;;;;;;14.57;2.28;;;;;;;;;;4918369;29;20039;-32
2022/01/24 09:25:05;;;;;;;11.93;2.00;;;;;;;;;;4918483;29;20103;-30
2022/01/24 09:27:31;;;;;;;11.00;2.35;;;;;;;;;;4918399;29;20032;-31
2022/01/24 09:29:58;;;;;;;16.73;2.78;;;;;;;;;;4917447;29;20066;-31
2022/01/24 09:32:27;;;;;;;9.30;1.80;;;;;;;;;;4917501;29;20024;-31
2022/01/24 09:34:53;;;;;;;27.58;2.78;;;;;;;;;;4917431;29;20463;-31
2022/01/24 09:37:19;;;;;;;21.75;2.45;;;;;;;;;;4918363;29;20032;-30
2022/01/24 09:39:46;;;;;;;14.98;2.53;;;;;;;;;;4918665;29;20163;-30
2022/01/24 09:42:12;;;;;;;10.65;2.20;;;;;;;;;;4918103;29;20051;-30
2022/01/24 09:44:38;;;;;;;18.20;1.85;;;;;;;;;;4917900;29;20028;-30
2022/01/24 09:47:05;;;;;;;11.02;1.92;;;;;;;;;;4918238;29;20459;-32
2022/01/24 09:49:31;;;;;;;10.23;2.00;;;;;;;;;;4918093;29;20028;-31
2022/01/24 09:51:57;;;;;;;12.95;2.33;;;;;;;;;;4917930;29;20034;-31
2022/01/24 09:54:23;;;;;;;17.30;2.30;;;;;;;;;;4918039;29;20027;-31
2022/01/24 09:56:50;;;;;;;18.52;2.38;;;;;;;;;;4918347;29;20024;-31
2022/01/24 09:59:16;;;;;;;13.20;2.00;;;;;;;;;;4918197;29;20467;-30
2022/01/24 10:01:42;;;;;;;8.77;2.40;;;;;;;;;;4917748;29;20032;-31
2022/01/24 10:04:11;;;;;;;11.55;2.67;;;;;;;;;;4917607;29;20067;-31
2022/01/24 10:06:58;;;;;;;4.57;1.75;;;;;;;;;;4917792;29;20028;-30
2022/01/24 10:09:31;;;;;;;11.07;2.40;;;;;;;;;;4916711;29;20344;-31
2022/01/24 10:12:02;;;;;;;24.33;2.53;;;;;;;;;;4917798;29;20088;-31
2022/01/24 10:17:26;;;;;;;12.38;2.55;;;;;;;;;;4917860;29;20044;-31
2022/01/24 10:19:52;;;;;;;15.75;2.33;;;;;;;;;;4917932;29;20368;-31
2022/01/24 10:22:23;;;;;;;12.55;1.58;;;;;;;;;;4917903;29;20032;-31
2022/01/24 10:24:51;;;;;;;17.50;2.20;;;;;;;;;;4918080;29;20063;-32
2022/01/24 10:27:28;;;;;;;12.07;2.75;;;;;;;;;;4917160;29;20036;-31
2022/01/24 10:29:58;;;;;;;15.20;2.70;;;;;;;;;;4918301;29;20066;-32
2022/01/24 10:32:27;;;;;;;13.10;2.23;;;;;;;;;;4917801;29;20056;-32
2022/01/24 10:34:54;;;;;;;18.30;3.20;;;;;;;;;;4918511;29;20283;-32
2022/01/24 10:37:24;;;;;;;21.88;2.35;;;;;;;;;;4918050;29;20105;-31
2022/01/24 10:40:08;;;;;;;9.80;2.72;;;;;;;;;;4917784;29;20040;-32
2022/01/24 10:45:13;;;;;;;17.52;2.67;;;;;;;;;;4917759;29;20040;-31
2022/01/24 10:47:45;;;;;;;21.98;2.55;;;;;;;;;;4917760;29;20028;-31
2022/01/24 10:50:19;;;;;;;18.63;2.45;;;;;;;;;;4916616;29;20031;-31
2022/01/24 10:52:45;;;;;;;19.92;2.20;;;;;;;;;;4916620;29;20428;-30
2022/01/24 10:55:13;;;;;;;17.35;2.47;;;;;;;;;;4919754;29;20099;-30
2022/01/24 10:57:40;;;;;;;25.80;4.00;;;;;;;;;;4921457;29;20052;-31
2022/01/24 11:00:11;;;;;;;9.50;2.13;;;;;;;;;;4921155;29;20032;-31
2022/01/24 11:02:41;;;;;;;10.88;2.83;;;;;;;;;;4921008;29;20076;-30
2022/01/24 11:05:27;;;;;;;18.27;2.45;;;;;;;;;;4921426;29;20428;-31
2022/01/24 11:07:56;;;;;;;9.90;1.70;;;;;;;;;;4921172;29;20123;-31
2022/01/24 11:10:23;;;;;;;18.05;2.17;;;;;;;;;;4920906;29;20032;-31
2022/01/24 11:12:49;;;;;;;18.23;2.70;;;;;;;;;;4921028;29;20042;-31
2022/01/24 11:15:15;;;;;;;15.02;2.55;;;;;;;;;;4920831;29;20160;-31
2022/01/24 11:17:44;;;;;;;15.77;3.17;;;;;;;;;;4920898;29;20063;-30
2022/01/24 11:20:14;;;;;;;16.02;2.70;;;;;;;;;;4920442;29;20036;-31
2022/01/24 11:22:44;;;;;;;7.47;2.28;;;;;;;;;;4920824;29;20369;-31
2022/01/24 11:25:11;;;;;;;13.63;3.25;;;;;;;;;;4920416;29;20036;-30
2022/01/24 11:27:39;;;;;;;8.68;2.60;;;;;;;;;;4920271;29;20032;-30
2022/01/24 11:30:11;;;;;;;16.38;2.75;;;;;;;;;;4919199;29;20139;-30
2022/01/24 11:32:46;;;;;;;18.80;2.80;;;;;;;;;;4920167;29;20111;-31
2022/01/24 11:35:12;;;;;;;17.35;2.85;;;;;;;;;;4920243;29;20040;-32
2022/01/24 11:37:46;;;;;;;15.82;2.25;;;;;;;;;;4920516;29;20028;-31
2022/01/24 11:40:12;;;;;;;17.70;2.85;;;;;;;;;;4919493;29;20064;-31
2022/01/24 11:42:39;;;;;;;18.42;3.20;;;;;;;;;;4920776;29;20032;-32
2022/01/24 11:45:14;;;;;;;13.32;2.72;;;;;;;;;;4920382;29;20051;-31
2022/01/24 11:47:42;;;;;;;22.30;2.75;;;;;;;;;;4920453;29;20063;-32
2022/01/24 11:50:27;;;;;;;26.00;4.63;;;;;;;;;;4920428;29;20118;-31
2022/01/24 11:52:55;;;;;;;33.30;3.10;;;;;;;;;;4920882;29;20051;-33
2022/01/24 11:55:35;;;;;;;25.70;2.70;;;;;;;;;;4920246;29;20035;-31
2022/01/24 11:58:04;;;;;;;33.33;3.65;;;;;;;;;;4919369;29;20455;-32
2022/01/24 12:00:36;;;;;;;28.73;5.20;;;;;;;;;;4919988;29;20071;-32
2022/01/24 12:03:13;;;;;;;26.40;3.25;;;;;;;;;;4919976;29;20094;-31
2022/01/24 12:05:53;;;;;;;21.02;3.13;;;;;;;;;;4918743;29;20051;-32
2022/01/24 12:08:30;;;;;;;17.67;3.15;;;;;;;;;;4920554;29;20099;-30
2022/01/24 12:11:10;;;;;;;16.60;2.55;;;;;;;;;;4919985;29;20055;-31
2022/01/24 12:14:01;;;;;;;16.70;4.07;;;;;;;;;;4918804;29;20039;-31
2022/01/24 12:16:37;;;;;;;10.48;2.25;;;;;;;;;;4919847;29;20067;-30
2022/01/24 12:19:04;;;;;;;20.67;2.75;;;;;;;;;;4920061;29;20106;-31
2022/01/24 12:21:33;;;;;;;15.00;3.08;;;;;;;;;;4919906;29;20048;-31
2022/01/24 12:24:05;;;;;;;14.50;2.88;;;;;;;;;;4918418;29;20032;-32
2022/01/24 12:26:35;;;;;;;20.60;4.53;;;;;;;;;;4919848;29;20040;-30
2022/01/24 12:29:06;;;;;;;32.25;4.30;;;;;;;;;;4918268;29;20098;-31
2022/01/24 12:31:35;;;;;;;19.05;2.90;;;;;;;;;;4919726;29;20072;-30
2022/01/24 12:34:07;;;;;;;19.50;2.78;;;;;;;;;;4919535;29;20028;-32
2022/01/24 12:36:50;;;;;;;18.83;5.25;;;;;;;;;;4919474;29;20042;-30
2022/01/24 12:39:25;;;;;;;14.75;2.58;;;;;;;;;;4919336;29;20467;-31
2022/01/24 12:41:57;;;;;;;16.10;3.75;;;;;;;;;;4919251;29;20107;-30
2022/01/24 12:47:00;;;;;;;17.95;3.00;;;;;;;;;;4919111;29;20028;-32
2022/01/24 12:49:29;;;;;;;24.25;3.47;;;;;;;;;;4919025;29;20024;-32
2022/01/24 12:51:55;;;;;;;21.25;2.95;;;;;;;;;;4919859;29;20115;-30
2022/01/24 12:54:28;;;;;;;12.85;2.50;;;;;;;;;;4919274;29;20028;-30
2022/01/24 12:56:59;;;;;;;36.13;4.57;;;;;;;;;;4919340;29;20099;-32
2022/01/24 12:59:25;;;;;;;20.42;3.22;;;;;;;;;;4919594;29;20056;-30
2022/01/24 13:01:55;;;;;;;13.82;3.10;;;;;;;;;;4918782;29;20440;-30
2022/01/24 13:04:30;;;;;;;15.50;3.78;;;;;;;;;;4917548;29;20138;-31
2022/01/24 13:06:58;;;;;;;25.45;2.90;;;;;;;;;;4918764;29;20039;-31
2022/01/24 13:09:27;;;;;;;20.25;4.20;;;;;;;;;;4918515;29;20459;-31
2022/01/24 13:11:54;;;;;;;18.38;2.97;;;;;;;;;;4917538;29;20519;-31
2022/01/24 13:14:32;;;;;;;26.25;5.57;;;;;;;;;;4918456;29;20051;-31
2022/01/24 13:25:03;;;;;;;40.87;6.83;;;;;;;;;;4918705;29;20364;-32
2022/01/24 13:27:42;;;;;;;22.90;3.80;;;;;;;;;;4918766;29;20043;-30
2022/01/24 13:30:14;;;;;;;28.00;3.53;;;;;;;;;;4917599;29;20040;-30
2022/01/24 13:32:43;;;;;;;12.27;3.17;;;;;;;;;;4918678;29;20420;-30
2022/01/24 13:35:14;;;;;;;12.93;2.55;;;;;;;;;;4918445;29;20418;-30
2022/01/24 13:37:40;;;;;;;23.93;3.57;;;;;;;;;;4918781;29;20079;-31
2022/01/24 13:40:07;;;;;;;21.73;4.00;;;;;;;;;;4918297;29;20067;-31
2022/01/24 13:42:36;;;;;;;21.55;4.50;;;;;;;;;;4918291;29;20028;-31
2022/01/24 13:45:03;;;;;;;26.95;4.20;;;;;;;;;;4918281;29;20028;-32
2022/01/24 13:47:30;;;;;;;28.60;4.32;;;;;;;;;;4917126;29;20115;-30
2022/01/24 13:49:56;;;;;;;25.67;4.80;;;;;;;;;;4916935;29;20036;-31
2022/01/24 13:52:25;;;;;;;16.40;3.35;;;;;;;;;;4918198;29;20024;-30
2022/01/24 13:54:51;;;;;;;22.63;4.25;;;;;;;;;;4917928;29;20032;-31
2022/01/24 13:57:18;;;;;;;15.35;2.28;;;;;;;;;;4917937;29;20443;-32
2022/01/24 13:59:45;;;;;;;13.27;3.20;;;;;;;;;;4918202;29;20415;-30
2022/01/24 14:02:27;;;;;;;18.92;3.30;;;;;;;;;;4917026;29;20036;-30
2022/01/24 14:04:53;;;;;;;18.08;3.17;;;;;;;;;;4917594;29;20040;-30
2022/01/24 14:07:41;;;;;;;50.08;4.82;;;;;;;;;;4917909;29;20111;-30
2022/01/24 14:10:09;;;;;;;20.85;3.03;;;;;;;;;;4918230;29;20471;-31
2022/01/24 14:12:51;;;;;;;15.65;2.85;;;;;;;;;;4917356;29;20046;-30
2022/01/24 14:20:42;;;;;;;18.85;3.08;;;;;;;;;;4918067;29;20054;-30
2022/01/24 14:23:25;;;;;;;29.73;5.57;;;;;;;;;;4917729;29;20059;-30
2022/01/24 14:25:52;;;;;;;18.15;2.53;;;;;;;;;;4917638;29;20028;-30
2022/01/24 14:28:22;;;;;;;23.73;3.17;;;;;;;;;;4917687;29;20405;-30
2022/01/24 14:30:48;;;;;;;18.60;3.70;;;;;;;;;;4920352;29;20146;-29
2022/01/24 14:33:18;;;;;;;20.83;2.92;;;;;;;;;;4921968;29;20046;-29
2022/01/24 14:35:53;;;;;;;13.32;3.42;;;;;;;;;;4921516;29;20466;-30
2022/01/24 14:38:33;;;;;;;19.15;3.17;;;;;;;;;;4920301;29;20128;-30
2022/01/24 14:41:06;;;;;;;16.67;2.72;;;;;;;;;;4921235;29;20047;-30
2022/01/24 14:46:19;;;;;;;22.55;4.57;;;;;;;;;;4921462;29;20136;-30
2022/01/24 14:48:45;;;;;;;15.10;2.92;;;;;;;;;;4921187;29;20024;-30
2022/01/24 14:51:12;;;;;;;10.18;3.85;;;;;;;;;;4921288;29;20032;-31
2022/01/24 14:53:38;;;;;;;27.30;3.88;;;;;;;;;;4919956;29;20056;-30
2022/01/24 14:56:04;;;;;;;15.20;2.80;;;;;;;;;;4919872;29;20028;-31
2022/01/24 14:58:31;;;;;;;12.75;3.65;;;;;;;;;;4921025;29;20375;-30
2022/01/24 15:00:57;;;;;;;17.33;3.13;;;;;;;;;;4919760;29;20467;-30
2022/01/24 15:03:23;;;;;;;13.32;3.70;;;;;;;;;;4920683;29;20059;-31
2022/01/24 15:05:50;;;;;;;20.38;3.28;;;;;;;;;;4921067;29;20044;-32
2022/01/24 15:08:16;;;;;;;15.95;3.10;;;;;;;;;;4920962;29;20404;-30
2022/01/24 15:10:42;;;;;;;12.77;2.80;;;;;;;;;;4919787;29;20036;-32
2022/01/24 15:13:10;;;;;;;14.05;2.90;;;;;;;;;;4920551;29;20028;-31
2022/01/24 15:15:43;;;;;;;20.27;3.10;;;;;;;;;;4920795;29;20028;-30
2022/01/24 15:26:44;;;;;;;25.50;3.47;;;;;;;;;;4899669;29;20040;-30
2022/01/24 15:29:10;;;;;;;18.67;3.30;;;;;;;;;;4898932;29;20041;-30
2022/01/24 15:31:36;;;;;;;18.52;3.22;;;;;;;;;;4898971;29;20040;-30
2022/01/24 15:34:02;;;;;;;22.17;3.78;;;;;;;;;;4919329;29;20519;-30
2022/01/24 15:36:29;;;;;;;13.88;2.70;;;;;;;;;;4920355;29;20024;-29
2022/01/24 15:38:59;;;;;;;31.73;3.85;;;;;;;;;;4920299;29;20047;-29
2022/01/24 15:41:25;;;;;;;22.98;2.67;;;;;;;;;;4919020;29;20032;-30
2022/01/24 15:48:44;;;;;;;26.13;3.55;;;;;;;;;;4919977;29;20040;-31
2022/01/24 15:51:13;;;;;;;21.48;3.85;;;;;;;;;;4920097;29;20368;-30
2022/01/24 15:53:40;;;;;;;14.07;3.17;;;;;;;;;;4919943;29;20028;-31
2022/01/24 15:56:16;;;;;;;20.58;4.65;;;;;;;;;;4919064;29;20028;-32
2022/01/24 15:58:42;;;;;;;24.33;3.50;;;;;;;;;;4919871;29;20111;-31
2022/01/24 16:01:11;;;;;;;14.75;3.35;;;;;;;;;;4919763;29;20416;-31
2022/01/24 16:03:38;;;;;;;12.05;2.35;;;;;;;;;;4919569;29;20079;-31
2022/01/24 16:06:04;;;;;;;14.80;3.63;;;;;;;;;;4918794;29;20038;-31
2022/01/24 16:08:30;;;;;;;20.55;3.13;;;;;;;;;;4919590;29;20360;-31
2022/01/24 16:10:56;;;;;;;15.55;2.92;;;;;;;;;;4918319;29;20103;-30
2022/01/24 16:13:23;;;;;;;18.33;3.47;;;;;;;;;;4919403;29;20083;-31
2022/01/24 16:15:50;;;;;;;25.27;3.75;;;;;;;;;;4918485;29;20054;-31
2022/01/24 16:18:18;;;;;;;20.73;3.88;;;;;;;;;;4919268;29;20028;-31
2022/01/24 16:23:30;;;;;;;;;;;;;;;;;;4919741;29;20059;-31
2022/01/24 16:25:57;;;;;;;15.60;3.38;;;;;;;;;;4918334;29;19911;-31
2022/01/24 16:28:24;;;;;;;20.65;4.65;;;;;;;;;;4919240;29;20486;-31
2022/01/24 16:30:52;;;;;;;15.73;3.10;;;;;;;;;;4918090;29;20475;-31
2022/01/24 16:33:19;;;;;;;25.67;4.38;;;;;;;;;;4919256;29;20423;-31
2022/01/24 16:35:48;;;;;;;17.38;3.53;;;;;;;;;;4918978;29;20076;-31
2022/01/24 16:38:14;;;;;;;27.40;4.78;;;;;;;;;;4919004;29;20027;-30
2022/01/24 16:48:28;;;;;;;23.08;3.55;;;;;;;;;;4918928;29;20492;-30
2022/01/24 16:50:55;;;;;;;13.27;3.33;;;;;;;;;;4918669;29;20178;-29
2022/01/24 16:53:21;;;;;;;8.57;2.88;;;;;;;;;;4918238;29;20035;-30
2022/01/24 16:55:50;;;;;;;17.50;2.83;;;;;;;;;;4918839;29;20032;-30
2022/01/24 16:58:16;;;;;;;24.80;3.50;;;;;;;;;;4918797;29;20108;-30
2022/01/24 17:00:43;;;;;;;21.35;3.22;;;;;;;;;;4917576;29;20079;-30
2022/01/24 17:03:09;;;;;;;15.55;3.00;;;;;;;;;;4918091;29;20056;-31
2022/01/24 17:05:42;;;;;;;21.55;3.35;;;;;;;;;;4918666;29;20385;-30
2022/01/24 17:08:08;;;;;;;14.63;3.75;;;;;;;;;;4918679;29;20076;-30
2022/01/24 17:10:35;;;;;;;17.20;3.15;;;;;;;;;;4918337;29;20040;-30
2022/01/24 17:13:05;;;;;;;12.27;2.90;;;;;;;;;;4918339;29;20036;-32
2022/01/24 17:15:32;;;;;;;16.40;3.20;;;;;;;;;;4918366;29;20035;-33
2022/01/24 17:17:58;;;;;;;16.77;2.65;;;;;;;;;;4918612;29;20044;-30
2022/01/24 17:20:26;;;;;;;18.30;3.70;;;;;;;;;;4918317;29;20032;-31